sensor_id;sensor_type;location;lat;lon;timestamp;pressure;altitude;pressure_sealevel;temperature;humidity
78488;BME280;67885;49.758;9.582;2024-03-02T00:00:43;98097.75;;;11.04;51.77
78488;BME280;67885;49.758;9.582;2024-03-02T00:03:12;98100.34;;;10.95;51.94
78488;BME280;67885;49.758;9.582;2024-03-02T00:05:39;98096.81;;;10.87;52.30
78488;BME280;67885;49.758;9.582;2024-03-02T00:08:07;98094.22;;;10.77;52.47
78488;BME280;67885;49.758;9.582;2024-03-02T00:10:38;98080.06;;;10.68;52.44
78488;BME280;67885;49.758;9.582;2024-03-02T00:13:06;98089.94;;;10.76;51.84
78488;BME280;67885;49.758;9.582;2024-03-02T00:15:46;98088.72;;;10.70;52.49
78488;BME280;67885;49.758;9.582;2024-03-02T00:18:16;98089.84;;;10.68;52.86
78488;BME280;67885;49.758;9.582;2024-03-02T00:20:45;98089.47;;;10.62;52.63
78488;BME280;67885;49.758;9.582;2024-03-02T00:23:15;98092.84;;;10.55;52.82
78488;BME280;67885;49.758;9.582;2024-03-02T00:25:44;98081.72;;;10.51;52.93
78488;BME280;67885;49.758;9.582;2024-03-02T00:28:16;98089.53;;;10.53;52.88
78488;BME280;67885;49.758;9.582;2024-03-02T00:30:54;98086.03;;;10.52;53.50
78488;BME280;67885;49.758;9.582;2024-03-02T00:33:22;98101.34;;;10.58;52.68
78488;BME280;67885;49.758;9.582;2024-03-02T00:35:50;98087.72;;;10.53;53.13
78488;BME280;67885;49.758;9.582;2024-03-02T00:38:17;98096.44;;;10.63;52.32
78488;BME280;67885;49.758;9.582;2024-03-02T00:40:46;98104.22;;;10.65;52.26
78488;BME280;67885;49.758;9.582;2024-03-02T00:46:11;98103.38;;;10.65;53.17
78488;BME280;67885;49.758;9.582;2024-03-02T00:48:40;98103.00;;;10.59;53.26
78488;BME280;67885;49.758;9.582;2024-03-02T00:51:11;98097.31;;;10.54;53.75
78488;BME280;67885;49.758;9.582;2024-03-02T00:53:38;98112.25;;;10.55;54.05
78488;BME280;67885;49.758;9.582;2024-03-02T00:56:09;98078.91;;;10.35;53.36
78488;BME280;67885;49.758;9.582;2024-03-02T00:58:37;98107.31;;;10.60;53.24
78488;BME280;67885;49.758;9.582;2024-03-02T01:01:04;98108.00;;;10.62;53.31
78488;BME280;67885;49.758;9.582;2024-03-02T01:03:32;98089.38;;;10.26;53.10
78488;BME280;67885;49.758;9.582;2024-03-02T01:05:59;98092.31;;;10.51;53.39
78488;BME280;67885;49.758;9.582;2024-03-02T01:08:26;98080.13;;;10.40;52.88
78488;BME280;67885;49.758;9.582;2024-03-02T01:10:52;98092.00;;;10.36;53.11
78488;BME280;67885;49.758;9.582;2024-03-02T01:13:21;98091.22;;;10.26;53.53
78488;BME280;67885;49.758;9.582;2024-03-02T01:15:48;98099.22;;;10.16;54.42
78488;BME280;67885;49.758;9.582;2024-03-02T01:18:15;98096.00;;;10.12;54.91
78488;BME280;67885;49.758;9.582;2024-03-02T01:20:41;98106.13;;;10.17;54.71
78488;BME280;67885;49.758;9.582;2024-03-02T01:23:08;98094.16;;;10.23;54.59
78488;BME280;67885;49.758;9.582;2024-03-02T01:25:35;98092.88;;;10.27;54.62
78488;BME280;67885;49.758;9.582;2024-03-02T01:28:02;98086.88;;;10.25;54.15
78488;BME280;67885;49.758;9.582;2024-03-02T01:30:30;98089.38;;;10.26;54.64
78488;BME280;67885;49.758;9.582;2024-03-02T01:32:56;98081.56;;;10.35;54.06
78488;BME280;67885;49.758;9.582;2024-03-02T01:35:24;98088.66;;;10.34;54.72
78488;BME280;67885;49.758;9.582;2024-03-02T01:37:52;98083.22;;;10.36;54.10
78488;BME280;67885;49.758;9.582;2024-03-02T01:40:18;98082.53;;;10.34;54.22
78488;BME280;67885;49.758;9.582;2024-03-02T01:42:45;98081.00;;;10.31;53.57
78488;BME280;67885;49.758;9.582;2024-03-02T01:45:12;98082.66;;;10.32;53.54
78488;BME280;67885;49.758;9.582;2024-03-02T01:47:40;98078.22;;;10.33;53.86
78488;BME280;67885;49.758;9.582;2024-03-02T01:50:07;98080.59;;;10.36;53.76
78488;BME280;67885;49.758;9.582;2024-03-02T01:52:34;98081.56;;;10.35;53.36
78488;BME280;67885;49.758;9.582;2024-03-02T01:55:01;98073.06;;;10.31;52.97
78488;BME280;67885;49.758;9.582;2024-03-02T01:57:29;98085.72;;;10.37;53.10
78488;BME280;67885;49.758;9.582;2024-03-02T01:59:56;98084.22;;;10.35;53.47
78488;BME280;67885;49.758;9.582;2024-03-02T02:02:23;98085.06;;;10.35;52.88
78488;BME280;67885;49.758;9.582;2024-03-02T02:04:51;98088.81;;;10.33;53.29
78488;BME280;67885;49.758;9.582;2024-03-02T02:07:17;98086.31;;;10.31;53.03
78488;BME280;67885;49.758;9.582;2024-03-02T02:09:44;98081.28;;;10.28;52.90
78488;BME280;67885;49.758;9.582;2024-03-02T02:12:11;98027.22;;;9.94;52.66
78488;BME280;67885;49.758;9.582;2024-03-02T02:14:37;98080.47;;;10.27;52.40
78488;BME280;67885;49.758;9.582;2024-03-02T02:17:05;98067.97;;;10.20;52.53
78488;BME280;67885;49.758;9.582;2024-03-02T02:19:31;98093.31;;;10.22;52.13
78488;BME280;67885;49.758;9.582;2024-03-02T02:21:59;98073.03;;;10.13;52.36
78488;BME280;67885;49.758;9.582;2024-03-02T02:24:26;98078.47;;;10.11;52.79
78488;BME280;67885;49.758;9.582;2024-03-02T02:26:52;98077.09;;;10.07;52.42
78488;BME280;67885;49.758;9.582;2024-03-02T02:29:19;98084.88;;;10.09;52.07
78488;BME280;67885;49.758;9.582;2024-03-02T02:31:46;98076.78;;;10.10;52.58
78488;BME280;67885;49.758;9.582;2024-03-02T02:34:14;98081.09;;;10.11;52.40
78488;BME280;67885;49.758;9.582;2024-03-02T02:36:40;98073.88;;;10.13;52.18
78488;BME280;67885;49.758;9.582;2024-03-02T02:39:13;98080.28;;;10.11;52.30
78488;BME280;67885;49.758;9.582;2024-03-02T02:41:42;98069.00;;;10.09;52.28
78488;BME280;67885;49.758;9.582;2024-03-02T02:44:08;98070.13;;;10.06;52.00
78488;BME280;67885;49.758;9.582;2024-03-02T02:46:36;98064.59;;;10.00;52.22
78488;BME280;67885;49.758;9.582;2024-03-02T02:49:03;98062.25;;;9.96;51.94
78488;BME280;67885;49.758;9.582;2024-03-02T02:51:30;98061.75;;;9.93;51.82
78488;BME280;67885;49.758;9.582;2024-03-02T02:53:57;98058.53;;;9.89;51.53
78488;BME280;67885;49.758;9.582;2024-03-02T02:56:25;98061.34;;;9.88;50.92
78488;BME280;67885;49.758;9.582;2024-03-02T02:58:51;98048.69;;;9.82;51.50
78488;BME280;67885;49.758;9.582;2024-03-02T03:01:18;98062.47;;;9.85;51.87
78488;BME280;67885;49.758;9.582;2024-03-02T03:03:45;98059.97;;;9.84;51.42
78488;BME280;67885;49.758;9.582;2024-03-02T03:06:12;98040.50;;;9.75;52.07
78488;BME280;67885;49.758;9.582;2024-03-02T03:08:38;98043.47;;;9.72;52.36
78488;BME280;67885;49.758;9.582;2024-03-02T03:11:05;98047.22;;;9.69;51.42
78488;BME280;67885;49.758;9.582;2024-03-02T03:13:34;97987.31;;;9.22;52.23
78488;BME280;67885;49.758;9.582;2024-03-02T03:16:00;98048.50;;;9.65;52.35
78488;BME280;67885;49.758;9.582;2024-03-02T03:18:29;98049.19;;;9.67;51.92
78488;BME280;67885;49.758;9.582;2024-03-02T03:20:54;98053.22;;;9.61;52.87
78488;BME280;67885;49.758;9.582;2024-03-02T03:23:21;98046.88;;;9.54;53.11
78488;BME280;67885;49.758;9.582;2024-03-02T03:25:47;98059.38;;;9.62;53.15
78488;BME280;67885;49.758;9.582;2024-03-02T03:28:14;98045.63;;;9.49;53.32
78488;BME280;67885;49.758;9.582;2024-03-02T03:30:42;98056.78;;;9.52;53.99
78488;BME280;67885;49.758;9.582;2024-03-02T03:33:08;98057.88;;;9.50;54.87
78488;BME280;67885;49.758;9.582;2024-03-02T03:35:36;98068.88;;;9.45;55.26
78488;BME280;67885;49.758;9.582;2024-03-02T03:38:03;98073.03;;;9.48;55.30
78488;BME280;67885;49.758;9.582;2024-03-02T03:40:30;98060.38;;;9.51;54.40
78488;BME280;67885;49.758;9.582;2024-03-02T03:42:57;98051.13;;;9.37;54.88
78488;BME280;67885;49.758;9.582;2024-03-02T03:45:25;98078.19;;;9.49;55.07
78488;BME280;67885;49.758;9.582;2024-03-02T03:47:53;98067.09;;;9.45;54.95
78488;BME280;67885;49.758;9.582;2024-03-02T03:50:20;98060.22;;;9.53;55.83
78488;BME280;67885;49.758;9.582;2024-03-02T03:52:47;98078.19;;;9.49;55.69
78488;BME280;67885;49.758;9.582;2024-03-02T03:55:13;98070.13;;;9.41;55.31
78488;BME280;67885;49.758;9.582;2024-03-02T03:57:40;98073.06;;;9.38;56.07
78488;BME280;67885;49.758;9.582;2024-03-02T04:00:07;98075.56;;;9.39;56.20
78488;BME280;67885;49.758;9.582;2024-03-02T04:02:35;98080.84;;;9.39;55.15
78488;BME280;67885;49.758;9.582;2024-03-02T04:05:04;98076.97;;;9.34;56.63
78488;BME280;67885;49.758;9.582;2024-03-02T04:07:35;98064.19;;;9.29;56.23
78488;BME280;67885;49.758;9.582;2024-03-02T04:10:07;98071.53;;;9.35;54.98
78488;BME280;67885;49.758;9.582;2024-03-02T04:12:34;98072.41;;;9.26;56.16
78488;BME280;67885;49.758;9.582;2024-03-02T04:15:01;98064.38;;;9.08;56.73
78488;BME280;67885;49.758;9.582;2024-03-02T04:17:30;98073.97;;;8.99;56.17
78488;BME280;67885;49.758;9.582;2024-03-02T04:19:57;98064.09;;;8.82;56.85
78488;BME280;67885;49.758;9.582;2024-03-02T04:22:25;98075.66;;;8.81;56.78
78488;BME280;67885;49.758;9.582;2024-03-02T04:24:52;98078.03;;;8.74;56.84
78488;BME280;67885;49.758;9.582;2024-03-02T04:27:18;98075.53;;;8.72;57.45
78488;BME280;67885;49.758;9.582;2024-03-02T04:29:45;98078.16;;;8.72;57.18
78488;BME280;67885;49.758;9.582;2024-03-02T04:32:11;98072.91;;;8.72;57.32
78488;BME280;67885;49.758;9.582;2024-03-02T04:34:38;98080.53;;;8.75;56.65
78488;BME280;67885;49.758;9.582;2024-03-02T04:37:05;98068.97;;;8.67;56.38
78488;BME280;67885;49.758;9.582;2024-03-02T04:39:34;98084.56;;;8.70;57.40
78488;BME280;67885;49.758;9.582;2024-03-02T04:42:01;98086.63;;;8.76;56.29
78488;BME280;67885;49.758;9.582;2024-03-02T04:44:28;98057.31;;;8.59;56.35
78488;BME280;67885;49.758;9.582;2024-03-02T04:46:54;98093.72;;;8.75;57.08
78488;BME280;67885;49.758;9.582;2024-03-02T04:49:21;98092.19;;;8.83;56.97
78488;BME280;67885;49.758;9.582;2024-03-02T04:51:48;98097.06;;;8.87;55.54
78488;BME280;67885;49.758;9.582;2024-03-02T04:54:14;98094.28;;;8.89;56.02
78488;BME280;67885;49.758;9.582;2024-03-02T04:56:42;98093.56;;;8.87;54.96
78488;BME280;67885;49.758;9.582;2024-03-02T04:59:14;97974.81;;;8.18;55.31
78488;BME280;67885;49.758;9.582;2024-03-02T05:01:41;98081.91;;;8.80;54.89
78488;BME280;67885;49.758;9.582;2024-03-02T05:04:08;98068.59;;;8.62;54.63
78488;BME280;67885;49.758;9.582;2024-03-02T05:06:37;98086.06;;;8.53;55.21
78488;BME280;67885;49.758;9.582;2024-03-02T05:09:04;98084.66;;;8.49;55.55
78488;BME280;67885;49.758;9.582;2024-03-02T05:11:31;98091.75;;;8.48;55.79
78488;BME280;67885;49.758;9.582;2024-03-02T05:14:31;98099.53;;;8.50;55.50
78488;BME280;67885;49.758;9.582;2024-03-02T05:16:57;98093.28;;;8.51;55.19
78488;BME280;67885;49.758;9.582;2024-03-02T05:19:24;98098.16;;;8.55;54.94
78488;BME280;67885;49.758;9.582;2024-03-02T05:21:50;98092.59;;;8.58;54.50
78488;BME280;67885;49.758;9.582;2024-03-02T05:24:17;98089.28;;;8.56;54.34
78488;BME280;67885;49.758;9.582;2024-03-02T05:26:44;98095.50;;;8.65;54.19
78488;BME280;67885;49.758;9.582;2024-03-02T05:29:10;98096.22;;;8.67;54.09
78488;BME280;67885;49.758;9.582;2024-03-02T05:31:37;98105.09;;;8.66;54.92
78488;BME280;67885;49.758;9.582;2024-03-02T05:34:04;98099.81;;;8.66;54.50
78488;BME280;67885;49.758;9.582;2024-03-02T05:36:31;98101.50;;;8.67;54.64
78488;BME280;67885;49.758;9.582;2024-03-02T05:38:58;98087.31;;;8.58;55.09
78488;BME280;67885;49.758;9.582;2024-03-02T05:41:24;98100.53;;;8.68;53.93
78488;BME280;67885;49.758;9.582;2024-03-02T05:43:51;98095.38;;;8.67;54.92
78488;BME280;67885;49.758;9.582;2024-03-02T05:46:17;98087.88;;;8.62;54.22
78488;BME280;67885;49.758;9.582;2024-03-02T05:48:45;98084.81;;;8.57;56.19
78488;BME280;67885;49.758;9.582;2024-03-02T05:51:12;98083.72;;;8.59;54.01
78488;BME280;67885;49.758;9.582;2024-03-02T05:53:38;98088.31;;;8.57;52.94
78488;BME280;67885;49.758;9.582;2024-03-02T05:56:05;98080.25;;;8.49;53.99
78488;BME280;67885;49.758;9.582;2024-03-02T05:58:32;98094.69;;;8.55;54.67
78488;BME280;67885;49.758;9.582;2024-03-02T06:01:11;98100.09;;;8.53;54.58
78488;BME280;67885;49.758;9.582;2024-03-02T06:03:38;98101.91;;;8.53;54.65
78488;BME280;67885;49.758;9.582;2024-03-02T06:06:06;98107.03;;;8.54;54.42
78488;BME280;67885;49.758;9.582;2024-03-02T06:08:32;98110.66;;;8.53;55.08
78488;BME280;67885;49.758;9.582;2024-03-02T06:11:00;98111.91;;;8.59;54.28
78488;BME280;67885;49.758;9.582;2024-03-02T06:13:27;98090.44;;;8.33;54.79
78488;BME280;67885;49.758;9.582;2024-03-02T06:15:54;98106.78;;;8.57;54.93
78488;BME280;67885;49.758;9.582;2024-03-02T06:18:20;98109.66;;;8.54;54.83
78488;BME280;67885;49.758;9.582;2024-03-02T06:20:47;98113.59;;;8.60;54.41
78488;BME280;67885;49.758;9.582;2024-03-02T06:23:15;98118.72;;;8.62;54.89
78488;BME280;67885;49.758;9.582;2024-03-02T06:25:42;98113.31;;;8.53;54.87
78488;BME280;67885;49.758;9.582;2024-03-02T06:28:09;98120.22;;;8.54;54.58
78488;BME280;67885;49.758;9.582;2024-03-02T06:30:35;98137.75;;;8.65;54.58
78488;BME280;67885;49.758;9.582;2024-03-02T06:33:02;98136.91;;;8.65;54.66
78488;BME280;67885;49.758;9.582;2024-03-02T06:35:29;98134.28;;;8.65;55.30
78488;BME280;67885;49.758;9.582;2024-03-02T06:37:56;98145.41;;;8.68;55.82
78488;BME280;67885;49.758;9.582;2024-03-02T06:40:24;98134.00;;;8.68;55.78
78488;BME280;67885;49.758;9.582;2024-03-02T06:42:50;98128.56;;;8.59;54.90
78488;BME280;67885;49.758;9.582;2024-03-02T06:45:17;98169.69;;;8.52;54.94
78488;BME280;67885;49.758;9.582;2024-03-02T06:47:43;98136.97;;;8.43;54.76
78488;BME280;67885;49.758;9.582;2024-03-02T06:50:11;98131.97;;;8.31;55.59
78488;BME280;67885;49.758;9.582;2024-03-02T06:52:38;98138.47;;;8.26;55.61
78488;BME280;67885;49.758;9.582;2024-03-02T06:55:06;98136.13;;;8.23;55.14
78488;BME280;67885;49.758;9.582;2024-03-02T06:57:34;98141.91;;;8.17;55.73
78488;BME280;67885;49.758;9.582;2024-03-02T07:00:00;98139.28;;;8.17;55.25
78488;BME280;67885;49.758;9.582;2024-03-02T07:02:30;98144.69;;;8.16;56.08
78488;BME280;67885;49.758;9.582;2024-03-02T07:04:57;98148.72;;;8.20;57.10
78488;BME280;67885;49.758;9.582;2024-03-02T07:07:36;98150.53;;;8.19;55.75
78488;BME280;67885;49.758;9.582;2024-03-02T07:10:03;98129.53;;;8.08;56.80
78488;BME280;67885;49.758;9.582;2024-03-02T07:12:30;98147.91;;;8.19;55.55
78488;BME280;67885;49.758;9.582;2024-03-02T07:14:57;98158.47;;;8.19;57.02
78488;BME280;67885;49.758;9.582;2024-03-02T07:17:49;98154.16;;;8.28;56.38
78488;BME280;67885;49.758;9.582;2024-03-02T07:20:15;98160.25;;;8.28;57.30
78488;BME280;67885;49.758;9.582;2024-03-02T07:22:42;98153.22;;;8.29;56.59
78488;BME280;67885;49.758;9.582;2024-03-02T07:25:09;98160.19;;;8.40;56.49
78488;BME280;67885;49.758;9.582;2024-03-02T07:27:36;98152.66;;;8.35;56.26
78488;BME280;67885;49.758;9.582;2024-03-02T07:30:04;98153.06;;;8.31;57.26
78488;BME280;67885;49.758;9.582;2024-03-02T07:32:31;98146.84;;;8.32;56.55
78488;BME280;67885;49.758;9.582;2024-03-02T07:34:57;98148.47;;;8.33;56.79
78488;BME280;67885;49.758;9.582;2024-03-02T07:37:24;98136.66;;;8.27;57.71
78488;BME280;67885;49.758;9.582;2024-03-02T07:39:51;98143.75;;;8.26;57.60
78488;BME280;67885;49.758;9.582;2024-03-02T07:42:18;98141.94;;;8.27;57.93
78488;BME280;67885;49.758;9.582;2024-03-02T07:44:44;98134.16;;;8.16;57.75
78488;BME280;67885;49.758;9.582;2024-03-02T07:47:13;98145.78;;;8.13;58.57
78488;BME280;67885;49.758;9.582;2024-03-02T07:49:40;98149.81;;;8.07;58.54
78488;BME280;67885;49.758;9.582;2024-03-02T07:52:06;98148.00;;;8.08;58.19
78488;BME280;67885;49.758;9.582;2024-03-02T07:54:33;98159.66;;;8.15;58.70
78488;BME280;67885;49.758;9.582;2024-03-02T07:57:00;98164.72;;;8.28;58.72
78488;BME280;67885;49.758;9.582;2024-03-02T07:59:27;98171.41;;;8.42;59.37
78488;BME280;67885;49.758;9.582;2024-03-02T08:01:54;98171.59;;;8.50;59.13
78488;BME280;67885;49.758;9.582;2024-03-02T08:04:23;98170.38;;;8.54;59.08
78488;BME280;67885;49.758;9.582;2024-03-02T08:06:50;98164.84;;;8.57;58.34
78488;BME280;67885;49.758;9.582;2024-03-02T08:09:16;98167.19;;;8.60;57.91
78488;BME280;67885;49.758;9.582;2024-03-02T08:11:43;98161.34;;;8.67;58.20
78488;BME280;67885;49.758;9.582;2024-03-02T08:14:09;98150.97;;;8.75;58.25
78488;BME280;67885;49.758;9.582;2024-03-02T08:16:36;98155.97;;;8.68;57.60
78488;BME280;67885;49.758;9.582;2024-03-02T08:19:03;98151.88;;;8.54;58.98
78488;BME280;67885;49.758;9.582;2024-03-02T08:21:31;98160.66;;;8.45;58.76
78488;BME280;67885;49.758;9.582;2024-03-02T08:24:00;98157.72;;;8.48;59.23
78488;BME280;67885;49.758;9.582;2024-03-02T08:26:27;98165.94;;;8.55;59.17
78488;BME280;67885;49.758;9.582;2024-03-02T08:28:57;98159.84;;;8.64;59.71
78488;BME280;67885;49.758;9.582;2024-03-02T08:31:23;98159.16;;;8.72;59.05
78488;BME280;67885;49.758;9.582;2024-03-02T08:33:50;98158.91;;;8.75;59.01
78488;BME280;67885;49.758;9.582;2024-03-02T08:36:17;98160.69;;;8.84;59.10
78488;BME280;67885;49.758;9.582;2024-03-02T08:38:45;98163.59;;;8.91;58.81
78488;BME280;67885;49.758;9.582;2024-03-02T08:41:12;98168.88;;;8.91;59.22
78488;BME280;67885;49.758;9.582;2024-03-02T08:43:40;98168.63;;;8.94;58.62
78488;BME280;67885;49.758;9.582;2024-03-02T08:46:07;98167.91;;;9.02;57.99
78488;BME280;67885;49.758;9.582;2024-03-02T08:48:34;98168.06;;;9.10;58.85
78488;BME280;67885;49.758;9.582;2024-03-02T08:51:01;98170.72;;;9.20;57.97
78488;BME280;67885;49.758;9.582;2024-03-02T08:53:29;98171.81;;;9.27;57.43
78488;BME280;67885;49.758;9.582;2024-03-02T08:55:57;98169.75;;;9.31;57.78
78488;BME280;67885;49.758;9.582;2024-03-02T08:58:24;98170.97;;;9.36;58.13
78488;BME280;67885;49.758;9.582;2024-03-02T09:00:51;98170.69;;;9.39;57.19
78488;BME280;67885;49.758;9.582;2024-03-02T09:03:17;98168.75;;;9.41;58.05
78488;BME280;67885;49.758;9.582;2024-03-02T09:05:44;98169.16;;;9.47;58.75
78488;BME280;67885;49.758;9.582;2024-03-02T09:08:11;98169.41;;;9.53;59.01
78488;BME280;67885;49.758;9.582;2024-03-02T09:10:38;98162.03;;;9.57;58.53
78488;BME280;67885;49.758;9.582;2024-03-02T09:13:06;98171.91;;;9.65;58.26
78488;BME280;67885;49.758;9.582;2024-03-02T09:15:33;98153.97;;;9.58;58.19
78488;BME280;67885;49.758;9.582;2024-03-02T09:18:03;98174.69;;;9.73;58.16
78488;BME280;67885;49.758;9.582;2024-03-02T09:20:30;98182.72;;;9.81;59.01
78488;BME280;67885;49.758;9.582;2024-03-02T09:22:56;98180.50;;;9.86;57.80
78488;BME280;67885;49.758;9.582;2024-03-02T09:25:23;98180.34;;;9.88;59.18
78488;BME280;67885;49.758;9.582;2024-03-02T09:27:50;98180.59;;;9.94;58.87
78488;BME280;67885;49.758;9.582;2024-03-02T09:30:18;98181.84;;;10.00;57.73
78488;BME280;67885;49.758;9.582;2024-03-02T09:32:45;98189.06;;;10.08;58.26
78488;BME280;67885;49.758;9.582;2024-03-02T09:35:11;98186.63;;;10.15;57.80
78488;BME280;67885;49.758;9.582;2024-03-02T09:37:38;98189.00;;;10.18;58.01
78488;BME280;67885;49.758;9.582;2024-03-02T09:40:06;98173.69;;;10.11;58.44
78488;BME280;67885;49.758;9.582;2024-03-02T09:42:32;98189.53;;;10.21;58.53
78488;BME280;67885;49.758;9.582;2024-03-02T09:45:00;98177.69;;;10.25;57.68
78488;BME280;67885;49.758;9.582;2024-03-02T09:47:28;98153.50;;;10.20;58.45
78488;BME280;67885;49.758;9.582;2024-03-02T09:49:54;98169.44;;;10.38;58.30
78488;BME280;67885;49.758;9.582;2024-03-02T09:52:22;98168.72;;;10.46;58.12
78488;BME280;67885;49.758;9.582;2024-03-02T09:54:49;98168.41;;;10.49;56.97
78488;BME280;67885;49.758;9.582;2024-03-02T09:57:15;98158.78;;;10.48;58.03
78488;BME280;67885;49.758;9.582;2024-03-02T09:59:42;98160.47;;;10.49;57.11
78488;BME280;67885;49.758;9.582;2024-03-02T10:02:10;98165.63;;;10.51;57.79
78488;BME280;67885;49.758;9.582;2024-03-02T10:04:38;98155.56;;;10.54;56.05
78488;BME280;67885;49.758;9.582;2024-03-02T10:07:12;98151.81;;;10.47;56.51
78488;BME280;67885;49.758;9.582;2024-03-02T10:09:39;98155.09;;;10.41;57.79
78488;BME280;67885;49.758;9.582;2024-03-02T10:12:07;98162.47;;;10.37;58.80
78488;BME280;67885;49.758;9.582;2024-03-02T10:14:35;98155.38;;;10.38;57.40
78488;BME280;67885;49.758;9.582;2024-03-02T10:17:03;98142.69;;;10.32;59.04
78488;BME280;67885;49.758;9.582;2024-03-02T10:19:30;98160.38;;;10.41;58.58
78488;BME280;67885;49.758;9.582;2024-03-02T10:22:00;98155.72;;;10.53;59.56
78488;BME280;67885;49.758;9.582;2024-03-02T10:24:35;98138.78;;;10.63;58.82
78488;BME280;67885;49.758;9.582;2024-03-02T10:27:02;98140.69;;;10.71;59.40
78488;BME280;67885;49.758;9.582;2024-03-02T10:29:34;98145.63;;;10.84;59.65
78488;BME280;67885;49.758;9.582;2024-03-02T10:32:03;98142.28;;;11.00;59.51
78488;BME280;67885;49.758;9.582;2024-03-02T10:34:31;98142.03;;;11.11;59.54
78488;BME280;67885;49.758;9.582;2024-03-02T10:36:59;98139.53;;;11.28;58.47
78488;BME280;67885;49.758;9.582;2024-03-02T10:39:27;98140.78;;;11.42;59.67
78488;BME280;67885;49.758;9.582;2024-03-02T10:41:55;98138.50;;;11.47;57.53
78488;BME280;67885;49.758;9.582;2024-03-02T10:44:22;98143.50;;;11.50;59.06
78488;BME280;67885;49.758;9.582;2024-03-02T10:46:50;98145.75;;;11.63;59.37
78488;BME280;67885;49.758;9.582;2024-03-02T10:49:16;98143.34;;;11.78;59.02
78488;BME280;67885;49.758;9.582;2024-03-02T10:51:43;98123.47;;;11.82;59.41
78488;BME280;67885;49.758;9.582;2024-03-02T10:54:11;98138.19;;;12.03;57.80
78488;BME280;67885;49.758;9.582;2024-03-02T10:56:39;98135.63;;;12.19;58.67
78488;BME280;67885;49.758;9.582;2024-03-02T10:59:17;98108.38;;;12.09;58.78
78488;BME280;67885;49.758;9.582;2024-03-02T11:01:48;98128.09;;;12.49;58.63
78488;BME280;67885;49.758;9.582;2024-03-02T11:04:18;98130.78;;;12.65;58.33
78488;BME280;67885;49.758;9.582;2024-03-02T11:06:49;98107.38;;;12.61;57.66
78488;BME280;67885;49.758;9.582;2024-03-02T11:09:20;98127.16;;;12.91;56.95
78488;BME280;67885;49.758;9.582;2024-03-02T11:11:53;98117.72;;;13.05;56.83
78488;BME280;67885;49.758;9.582;2024-03-02T11:14:24;98117.38;;;13.16;57.76
78488;BME280;67885;49.758;9.582;2024-03-02T11:16:52;98120.56;;;13.37;57.59
78488;BME280;67885;49.758;9.582;2024-03-02T11:19:19;98120.03;;;13.49;56.94
78488;BME280;67885;49.758;9.582;2024-03-02T11:21:48;98111.56;;;13.62;57.61
78488;BME280;67885;49.758;9.582;2024-03-02T11:24:34;98063.53;;;13.56;56.94
78488;BME280;67885;49.758;9.582;2024-03-02T11:27:04;98096.66;;;13.93;55.62
78488;BME280;67885;49.758;9.582;2024-03-02T11:29:43;98087.16;;;14.07;56.30
78488;BME280;67885;49.758;9.582;2024-03-02T11:32:15;98077.47;;;14.14;52.96
78488;BME280;67885;49.758;9.582;2024-03-02T11:34:43;98078.56;;;14.28;53.21
78488;BME280;67885;49.758;9.582;2024-03-02T11:37:13;98076.16;;;14.41;51.54
78488;BME280;67885;49.758;9.582;2024-03-02T11:39:43;98068.59;;;14.53;50.79
78488;BME280;67885;49.758;9.582;2024-03-02T11:42:12;98049.41;;;14.58;49.96
78488;BME280;67885;49.758;9.582;2024-03-02T11:44:43;98060.16;;;14.73;49.59
78488;BME280;67885;49.758;9.582;2024-03-02T11:47:12;98058.28;;;14.81;48.38
78488;BME280;67885;49.758;9.582;2024-03-02T11:49:42;98058.66;;;14.93;51.68
78488;BME280;67885;49.758;9.582;2024-03-02T11:52:11;98056.50;;;15.12;51.91
78488;BME280;67885;49.758;9.582;2024-03-02T11:54:40;98042.69;;;15.08;52.89
78488;BME280;67885;49.758;9.582;2024-03-02T11:57:13;98048.09;;;15.38;50.30
78488;BME280;67885;49.758;9.582;2024-03-02T11:59:41;98040.47;;;15.50;48.80
78488;BME280;67885;49.758;9.582;2024-03-02T12:02:14;98034.22;;;15.58;47.62
78488;BME280;67885;49.758;9.582;2024-03-02T12:04:42;98025.03;;;15.60;46.85
78488;BME280;67885;49.758;9.582;2024-03-02T12:07:11;97959.03;;;15.24;46.33
78488;BME280;67885;49.758;9.582;2024-03-02T12:09:38;98012.31;;;15.62;46.03
78488;BME280;67885;49.758;9.582;2024-03-02T12:12:05;98007.81;;;15.63;46.63
78488;BME280;67885;49.758;9.582;2024-03-02T12:14:34;98008.63;;;15.63;46.12
78488;BME280;67885;49.758;9.582;2024-03-02T12:17:02;97994.28;;;15.64;46.20
78488;BME280;67885;49.758;9.582;2024-03-02T12:19:29;98022.78;;;15.79;44.60
78488;BME280;67885;49.758;9.582;2024-03-02T12:21:57;97996.19;;;15.85;44.88
78488;BME280;67885;49.758;9.582;2024-03-02T12:24:27;97989.47;;;15.90;45.29
78488;BME280;67885;49.758;9.582;2024-03-02T12:26:54;97984.75;;;16.07;44.49
78488;BME280;67885;49.758;9.582;2024-03-02T12:29:21;97984.63;;;16.15;43.14
78488;BME280;67885;49.758;9.582;2024-03-02T12:31:50;97985.97;;;16.26;43.06
78488;BME280;67885;49.758;9.582;2024-03-02T12:34:18;97970.66;;;16.34;41.99
78488;BME280;67885;49.758;9.582;2024-03-02T12:36:46;97975.44;;;16.39;41.80
78488;BME280;67885;49.758;9.582;2024-03-02T12:39:15;97966.22;;;16.42;42.61
78488;BME280;67885;49.758;9.582;2024-03-02T12:41:42;97971.81;;;16.47;42.40
78488;BME280;67885;49.758;9.582;2024-03-02T12:44:09;97961.19;;;16.54;42.77
78488;BME280;67885;49.758;9.582;2024-03-02T12:46:36;97961.22;;;16.60;41.49
78488;BME280;67885;49.758;9.582;2024-03-02T12:49:09;97954.09;;;16.67;42.11
78488;BME280;67885;49.758;9.582;2024-03-02T12:51:38;97926.06;;;16.57;40.23
78488;BME280;67885;49.758;9.582;2024-03-02T12:54:06;97942.25;;;16.77;40.25
78488;BME280;67885;49.758;9.582;2024-03-02T12:56:32;97951.53;;;16.81;40.56
78488;BME280;67885;49.758;9.582;2024-03-02T12:58:59;97943.53;;;16.81;39.51
78488;BME280;67885;49.758;9.582;2024-03-02T13:01:26;97910.00;;;16.57;38.82
78488;BME280;67885;49.758;9.582;2024-03-02T13:03:53;97944.03;;;16.69;39.16
78488;BME280;67885;49.758;9.582;2024-03-02T13:06:24;97942.22;;;16.70;39.06
78488;BME280;67885;49.758;9.582;2024-03-02T13:08:53;97943.84;;;16.71;39.23
78488;BME280;67885;49.758;9.582;2024-03-02T13:11:21;97936.22;;;16.68;39.50